createdAt,value
2023-04-05T00:01:50.244Z,101684.34
2023-04-05T00:04:21.184Z,101678.22
2023-04-05T00:06:52.886Z,101679.97
2023-04-05T00:09:22.833Z,101680.94
2023-04-05T00:11:53.803Z,101690.69
2023-04-05T00:14:23.239Z,101681.94
2023-04-05T00:16:52.775Z,101683.63
2023-04-05T00:19:23.306Z,101680.09
2023-04-05T00:21:54.579Z,101680.09
2023-04-05T00:24:24.411Z,101679.25
2023-04-05T00:26:54.969Z,101679.22
2023-04-05T00:29:24.483Z,101667.94
2023-04-05T00:31:53.632Z,101675.91
2023-04-05T00:34:23.192Z,101671.41
2023-04-05T00:36:52.417Z,101669.63
2023-04-05T00:39:21.932Z,101668.72
2023-04-05T00:41:51.077Z,101664.22
2023-04-05T00:44:21.841Z,101662.56
2023-04-05T00:46:51.300Z,101664.38
2023-04-05T00:49:20.855Z,101663.44
2023-04-05T00:51:51.013Z,101666.91
2023-04-05T00:54:20.833Z,101662.56
2023-04-05T00:56:53.207Z,101664.34
2023-04-05T00:59:24.444Z,101665.19
2023-04-05T01:02:02.692Z,101662.50
2023-04-05T01:04:36.779Z,101667.72
2023-04-05T01:07:14.302Z,101658.09
2023-04-05T01:09:52.670Z,101665.06
2023-04-05T01:12:25.172Z,101656.13
2023-04-05T01:14:57.222Z,101656.91
2023-04-05T01:17:28.785Z,101661.31
2023-04-05T01:20:00.614Z,101649.91
2023-04-05T01:23:21.103Z,101647.25
2023-04-05T01:26:24.226Z,101652.41
2023-04-05T01:29:12.021Z,101659.28
2023-04-05T01:31:51.209Z,101656.56
2023-04-05T01:34:27.543Z,101647.75
2023-04-05T01:36:59.107Z,101645.00
2023-04-05T01:39:30.273Z,101650.19
2023-04-05T01:42:01.568Z,101649.28
2023-04-05T01:44:30.954Z,101642.22
2023-04-05T01:47:01.814Z,101648.38
2023-04-05T01:49:31.029Z,101645.66
2023-04-05T01:52:00.954Z,101648.31
2023-04-05T01:54:31.063Z,101641.22
2023-04-05T01:57:02.291Z,101643.81
2023-04-05T01:59:32.811Z,101639.34
2023-04-05T02:02:04.232Z,101642.81
2023-04-05T02:04:33.430Z,101633.94
2023-04-05T02:07:03.102Z,101646.19
2023-04-05T02:09:32.370Z,101638.28
2023-04-05T02:12:01.735Z,101635.50
2023-04-05T02:14:31.368Z,101632.78
2023-04-05T02:17:03.309Z,101635.41
2023-04-05T02:19:40.994Z,101637.16
2023-04-05T02:22:11.385Z,101626.69
2023-04-05T02:24:40.349Z,101624.78
2023-04-05T02:27:09.733Z,101627.34
2023-04-05T02:29:39.217Z,101626.38
2023-04-05T02:32:10.168Z,101629.00
2023-04-05T02:34:41.369Z,101630.78
2023-04-05T02:37:10.815Z,101626.28
2023-04-05T02:39:40.029Z,101620.19
2023-04-05T02:42:09.456Z,101618.44
2023-04-05T02:44:38.523Z,101615.81
2023-04-05T02:47:09.441Z,101622.75
2023-04-05T02:49:38.886Z,101611.22
2023-04-05T02:52:09.315Z,101618.13
2023-04-05T02:54:41.050Z,101616.31
2023-04-05T02:57:12.354Z,101614.59
2023-04-05T02:59:52.169Z,101623.34
2023-04-05T03:02:25.261Z,101618.94
2023-04-05T03:04:55.471Z,101622.41
2023-04-05T03:07:25.643Z,101610.88
2023-04-05T03:09:55.693Z,101614.41
2023-04-05T03:12:25.362Z,101614.28
2023-04-05T03:14:55.206Z,101620.38
2023-04-05T03:17:27.945Z,101612.47
2023-04-05T03:20:09.134Z,101621.38
2023-04-05T03:22:39.602Z,101614.22
2023-04-05T03:25:09.736Z,101612.50
2023-04-05T03:27:52.976Z,101617.75
2023-04-05T03:30:23.356Z,101612.47
2023-04-05T03:33:01.664Z,101608.97
2023-04-05T03:35:46.801Z,101616.00
2023-04-05T03:38:16.884Z,101606.31
2023-04-05T03:41:04.826Z,101605.38
2023-04-05T03:43:37.926Z,101602.72
2023-04-05T03:46:08.165Z,101602.69
2023-04-05T03:48:39.131Z,101614.94
2023-04-05T03:51:08.487Z,101609.63
2023-04-05T03:53:37.866Z,101607.03
2023-04-05T03:56:07.955Z,101605.25
2023-04-05T03:58:51.265Z,101613.94
2023-04-05T04:01:25.937Z,101601.63
2023-04-05T04:03:57.621Z,101585.97
2023-04-05T04:06:27.468Z,101599.91
2023-04-05T04:08:57.586Z,101595.47
2023-04-05T04:11:27.349Z,101598.09
2023-04-05T04:13:57.037Z,101598.81
2023-04-05T04:16:38.681Z,101601.41
2023-04-05T04:19:34.442Z,101604.13
2023-04-05T04:22:10.320Z,101608.41
2023-04-05T04:25:04.720Z,101610.13
2023-04-05T04:27:36.291Z,101608.31
2023-04-05T04:30:28.798Z,101604.94
2023-04-05T04:33:29.089Z,101603.13
2023-04-05T04:36:26.625Z,101604.03
2023-04-05T04:39:18.037Z,101616.34
2023-04-05T04:42:06.272Z,101611.13
2023-04-05T04:44:58.296Z,101613.03
2023-04-05T04:47:53.419Z,101608.66
2023-04-05T04:50:41.429Z,101612.13
2023-04-05T04:53:13.671Z,101613.03
2023-04-05T04:55:43.417Z,101609.59
2023-04-05T04:58:12.975Z,101609.63
2023-04-05T05:00:45.326Z,101606.16
2023-04-05T05:03:14.977Z,101609.88
2023-04-05T05:05:45.331Z,101607.34
2023-04-05T05:08:19.689Z,101607.53
2023-04-05T05:10:53.684Z,101606.59
2023-04-05T05:13:23.199Z,101595.09
2023-04-05T05:15:53.090Z,101600.34
2023-04-05T05:18:22.550Z,101602.09
2023-04-05T05:20:53.380Z,101595.22
2023-04-05T05:23:25.469Z,101591.84
2023-04-05T05:26:00.552Z,101592.00
2023-04-05T05:28:30.030Z,101594.66
2023-04-05T05:31:02.012Z,101592.34
2023-04-05T05:33:31.609Z,101588.81
2023-04-05T05:36:00.747Z,101590.75
2023-04-05T05:38:31.799Z,101592.59
2023-04-05T05:41:01.343Z,101586.63
2023-04-05T05:43:31.058Z,101590.84
2023-04-05T05:46:03.452Z,101586.44
2023-04-05T05:48:33.365Z,101590.03
2023-04-05T05:51:09.643Z,101592.69
2023-04-05T05:53:41.156Z,101588.53
2023-04-05T05:56:10.589Z,101591.22
2023-04-05T05:58:40.573Z,101598.38
2023-04-05T06:01:12.108Z,101600.19
2023-04-05T06:03:41.812Z,101593.38
2023-04-05T06:06:11.427Z,101595.31
2023-04-05T06:08:42.830Z,101590.09
2023-04-05T06:11:19.836Z,101586.69
2023-04-05T06:13:50.682Z,101588.53
2023-04-05T06:16:20.163Z,101594.75
2023-04-05T06:18:49.945Z,101588.69
2023-04-05T06:21:19.404Z,101589.66
2023-04-05T06:23:50.491Z,101591.44
2023-04-05T06:26:20.859Z,101588.75
2023-04-05T06:28:50.485Z,101587.16
2023-04-05T06:31:21.434Z,101592.50
2023-04-05T06:33:51.027Z,101585.56
2023-04-05T06:36:20.630Z,101587.34
2023-04-05T06:38:51.637Z,101587.44
2023-04-05T06:41:21.058Z,101582.16
2023-04-05T06:43:50.824Z,101578.72
2023-04-05T06:46:20.026Z,101578.78
2023-04-05T06:48:50.098Z,101576.19
2023-04-05T06:51:19.387Z,101579.75
2023-04-05T06:53:50.550Z,101576.31
2023-04-05T06:56:19.745Z,101579.88
2023-04-05T06:58:49.701Z,101586.06
2023-04-05T07:01:19.107Z,101589.66
2023-04-05T07:03:48.528Z,101591.44
2023-04-05T07:06:17.978Z,101583.56
2023-04-05T07:08:47.991Z,101582.72
2023-04-05T07:11:18.531Z,101582.75
2023-04-05T07:13:48.032Z,101578.38
2023-04-05T07:16:19.307Z,101575.75
2023-04-05T07:18:48.957Z,101581.09
2023-04-05T07:21:18.269Z,101585.50
2023-04-05T07:23:47.985Z,101577.59
2023-04-05T07:26:18.555Z,101579.38
2023-04-05T07:28:48.165Z,101575.00
2023-04-05T07:31:17.667Z,101578.53
2023-04-05T07:33:47.022Z,101586.47
2023-04-05T07:36:16.217Z,101575.91
2023-04-05T07:38:46.053Z,101580.31
2023-04-05T07:41:16.850Z,101580.31
2023-04-05T07:43:47.811Z,101582.97
2023-04-05T07:46:17.491Z,101575.88
2023-04-05T07:48:48.817Z,101574.16
2023-04-05T07:51:18.082Z,101574.09
2023-04-05T07:53:48.196Z,101574.09
2023-04-05T07:56:17.755Z,101572.34
2023-04-05T07:58:50.517Z,101572.31
2023-04-05T08:01:19.762Z,101575.88
2023-04-05T08:03:49.239Z,101576.72
2023-04-05T08:06:18.999Z,101576.72
2023-04-05T08:08:49.171Z,101567.88
2023-04-05T08:11:18.441Z,101575.84
2023-04-05T08:13:49.410Z,101577.59
2023-04-05T08:16:18.656Z,101577.59
2023-04-05T08:18:48.067Z,101568.78
2023-04-05T08:21:17.217Z,101573.19
2023-04-05T08:23:46.888Z,101572.31
2023-04-05T08:26:16.062Z,101577.63
2023-04-05T08:28:45.503Z,101575.81
2023-04-05T08:31:16.226Z,101566.13
2023-04-05T08:33:45.589Z,101566.13
2023-04-05T08:36:14.963Z,101571.44
2023-04-05T08:38:44.349Z,101574.06
2023-04-05T08:41:19.502Z,101573.16
2023-04-05T08:43:59.048Z,101563.44
2023-04-05T08:46:32.413Z,101569.59
2023-04-05T08:49:06.125Z,101574.88
2023-04-05T08:51:39.657Z,101570.47
2023-04-05T08:54:10.260Z,101569.53
2023-04-05T08:56:41.461Z,101571.28
2023-04-05T08:59:13.455Z,101561.53
2023-04-05T09:01:49.067Z,101545.56
2023-04-05T09:04:22.393Z,101549.03
2023-04-05T09:06:52.832Z,101553.41
2023-04-05T09:09:23.877Z,101561.31
2023-04-05T09:11:53.524Z,101553.34
2023-04-05T09:14:23.017Z,101557.75
2023-04-05T09:16:53.984Z,101563.06
2023-04-05T09:19:23.488Z,101572.81
2023-04-05T09:22:03.557Z,101570.25
2023-04-05T09:24:41.753Z,101567.66
2023-04-05T09:27:12.396Z,101570.28
2023-04-05T09:29:43.219Z,101579.16
2023-04-05T09:32:14.978Z,101572.16
2023-04-05T09:34:45.464Z,101583.66
2023-04-05T09:37:23.384Z,101586.31
2023-04-05T09:40:02.921Z,101579.28
2023-04-05T09:42:44.114Z,101581.06
2023-04-05T09:45:14.377Z,101582.78
2023-04-05T09:47:58.996Z,101581.91
2023-04-05T09:50:29.227Z,101582.75
2023-04-05T09:53:09.133Z,101582.78
2023-04-05T09:55:40.267Z,101589.84
2023-04-05T09:58:14.212Z,101584.50
2023-04-05T10:01:03.325Z,101580.97
2023-04-05T10:03:50.352Z,101591.59
2023-04-05T10:06:19.971Z,101580.09
2023-04-05T10:08:49.946Z,101585.41
2023-04-05T10:11:21.228Z,101584.50
2023-04-05T10:13:51.913Z,101582.69
2023-04-05T10:16:25.014Z,101583.59
2023-04-05T10:18:55.790Z,101586.22
2023-04-05T10:21:29.897Z,101582.66
2023-04-05T10:24:07.549Z,101580.88
2023-04-05T10:26:47.642Z,101584.38
2023-04-05T10:29:25.276Z,101580.81
2023-04-05T10:32:01.165Z,101583.41
2023-04-05T10:34:38.181Z,101584.25
2023-04-05T10:37:08.759Z,101585.09
2023-04-05T10:39:46.593Z,101591.22
2023-04-05T10:42:21.436Z,101582.31
2023-04-05T10:44:55.747Z,101591.13
2023-04-05T10:47:29.217Z,101579.50
2023-04-05T10:50:06.062Z,101587.38
2023-04-05T10:52:37.539Z,101584.66
2023-04-05T10:55:08.326Z,101579.25
2023-04-05T10:57:39.724Z,101580.06
2023-04-05T11:00:13.344Z,101577.31
2023-04-05T11:02:43.126Z,101584.31
2023-04-05T11:05:37.148Z,101585.97
2023-04-05T11:08:08.213Z,101583.28
2023-04-05T11:10:40.486Z,101576.19
2023-04-05T11:13:13.963Z,101584.09
2023-04-05T11:15:43.785Z,101586.72
2023-04-05T11:18:21.951Z,101581.34
2023-04-05T11:20:56.196Z,101588.41
2023-04-05T11:23:27.356Z,101598.13
2023-04-05T11:25:59.796Z,101594.59
2023-04-05T11:28:32.319Z,101599.94
2023-04-05T11:31:16.855Z,101599.97
2023-04-05T11:34:11.224Z,101600.88
2023-04-05T11:36:48.232Z,101602.69
2023-04-05T11:39:28.431Z,101593.03
2023-04-05T11:42:13.684Z,101591.31
2023-04-05T11:44:46.651Z,101594.84
2023-04-05T11:47:21.937Z,101601.09
2023-04-05T11:49:53.128Z,101602.84
2023-04-05T11:52:24.113Z,101594.03
2023-04-05T11:54:54.586Z,101596.72
2023-04-05T11:57:25.435Z,101594.09
2023-04-05T11:59:57.146Z,101591.44
2023-04-05T12:02:26.657Z,101598.50
2023-04-05T12:04:58.180Z,101598.47
2023-04-05T12:07:32.638Z,101594.91
2023-04-05T12:10:04.965Z,101584.25
2023-04-05T12:12:40.158Z,101588.63
2023-04-05T12:15:12.587Z,101582.34
2023-04-05T12:17:46.805Z,101585.88
2023-04-05T12:20:19.446Z,101587.53
2023-04-05T12:22:52.706Z,101589.25
2023-04-05T12:25:22.844Z,101580.28
2023-04-05T12:27:52.360Z,101577.56
2023-04-05T12:30:23.050Z,101580.16
2023-04-05T12:32:54.634Z,101575.81
2023-04-05T12:35:31.923Z,101565.06
2023-04-05T12:38:05.690Z,101575.66
2023-04-05T12:40:37.072Z,101574.75
2023-04-05T12:43:08.257Z,101568.63
2023-04-05T12:45:41.745Z,101577.63
2023-04-05T12:48:13.774Z,101584.72
2023-04-05T12:50:46.053Z,101583.81
2023-04-05T12:53:21.310Z,101575.81
2023-04-05T12:55:52.593Z,101579.38
2023-04-05T12:58:22.807Z,101581.16
2023-04-05T13:00:52.283Z,101577.59
2023-04-05T13:03:23.823Z,101575.03
2023-04-05T13:05:53.619Z,101574.16
2023-04-05T13:08:24.308Z,101583.00
2023-04-05T13:10:55.787Z,101576.03
2023-04-05T13:13:27.141Z,101580.41
2023-04-05T13:15:56.586Z,101578.63
2023-04-05T13:18:26.205Z,101578.72
2023-04-05T13:20:55.648Z,101579.63
2023-04-05T13:23:26.388Z,101582.38
2023-04-05T13:25:56.015Z,101583.28
2023-04-05T13:28:26.051Z,101580.59
2023-04-05T13:30:55.891Z,101582.41
2023-04-05T13:33:25.033Z,101581.56
2023-04-05T13:35:54.549Z,101580.72
2023-04-05T13:38:25.186Z,101583.47
2023-04-05T13:40:54.716Z,101581.66
2023-04-05T13:43:23.880Z,101583.56
2023-04-05T13:45:53.251Z,101575.59
2023-04-05T13:48:22.311Z,101581.78
2023-04-05T13:50:52.058Z,101581.81
2023-04-05T13:53:21.256Z,101576.56
2023-04-05T13:55:53.420Z,101580.97
2023-04-05T13:58:22.744Z,101576.53
2023-04-05T14:00:53.611Z,101581.00
2023-04-05T14:03:23.059Z,101580.22
2023-04-05T14:05:54.762Z,101579.31
2023-04-05T14:08:24.809Z,101575.81
2023-04-05T14:10:56.020Z,101574.91
2023-04-05T14:13:25.301Z,101579.38
2023-04-05T14:15:54.957Z,101581.19
2023-04-05T14:18:24.265Z,101584.66
2023-04-05T14:20:53.926Z,101581.09
2023-04-05T14:23:23.272Z,101589.09
2023-04-05T14:25:54.272Z,101580.25
2023-04-05T14:28:23.577Z,101592.59
2023-04-05T14:30:53.278Z,101592.59
2023-04-05T14:33:23.957Z,101591.72
2023-04-05T14:35:53.585Z,101590.81
2023-04-05T14:38:22.833Z,101591.66
2023-04-05T14:40:52.314Z,101602.31
2023-04-05T14:43:23.096Z,101603.16
2023-04-05T14:45:52.729Z,101601.34
2023-04-05T14:48:21.965Z,101598.66
2023-04-05T14:50:51.667Z,101608.34
2023-04-05T14:53:21.416Z,101599.53
2023-04-05T14:55:51.018Z,101610.09
2023-04-05T14:58:21.670Z,101598.53
2023-04-05T15:00:52.172Z,101604.75
2023-04-05T15:03:21.754Z,101613.59
2023-04-05T15:05:51.080Z,101607.38
2023-04-05T15:08:20.392Z,101611.91
2023-04-05T15:10:50.347Z,101610.16
2023-04-05T15:13:22.003Z,101613.66
2023-04-05T15:15:53.103Z,101611.00
2023-04-05T15:18:22.415Z,101618.09
2023-04-05T15:20:53.411Z,101624.28
2023-04-05T15:23:22.843Z,101622.56
2023-04-05T15:25:52.378Z,101625.22
2023-04-05T15:28:22.153Z,101622.59
2023-04-05T15:30:54.233Z,101631.41
2023-04-05T15:33:24.048Z,101635.84
2023-04-05T15:35:53.830Z,101631.47
2023-04-05T15:38:23.227Z,101635.00
2023-04-05T15:40:53.357Z,101622.59
2023-04-05T15:43:24.350Z,101634.06
2023-04-05T15:45:57.895Z,101632.34
2023-04-05T15:48:27.484Z,101638.56
2023-04-05T15:50:57.181Z,101637.69
2023-04-05T15:53:27.748Z,101642.13
2023-04-05T15:55:58.445Z,101636.00
2023-04-05T15:58:28.515Z,101643.09
2023-04-05T16:00:59.422Z,101638.72
2023-04-05T16:03:29.372Z,101636.94
2023-04-05T16:05:59.485Z,101635.16
2023-04-05T16:08:28.678Z,101644.00
2023-04-05T16:10:58.431Z,101642.28
2023-04-05T16:13:27.877Z,101649.34
2023-04-05T16:15:57.725Z,101645.84
2023-04-05T16:18:31.780Z,101645.00
2023-04-05T16:21:01.470Z,101649.47
2023-04-05T16:23:30.798Z,101655.66
2023-04-05T16:26:00.306Z,101646.84
2023-04-05T16:28:29.586Z,101648.59
2023-04-05T16:31:00.144Z,101648.59
2023-04-05T16:33:30.970Z,101645.97
2023-04-05T16:36:00.827Z,101651.31
2023-04-05T16:38:29.975Z,101642.44
2023-04-05T16:41:00.008Z,101652.22
2023-04-05T16:43:29.054Z,101656.66
2023-04-05T16:45:58.838Z,101657.59
2023-04-05T16:48:30.802Z,101654.13
2023-04-05T16:51:00.879Z,101655.88
2023-04-05T16:53:30.993Z,101651.47
2023-04-05T16:56:00.723Z,101653.31
2023-04-05T16:58:30.560Z,101653.28
2023-04-05T17:01:00.636Z,101662.13
2023-04-05T17:03:33.194Z,101662.13
2023-04-05T17:06:03.311Z,101665.69
2023-04-05T17:08:32.616Z,101664.84
2023-04-05T17:11:02.086Z,101667.53
2023-04-05T17:13:31.738Z,101675.50
2023-04-05T17:16:01.864Z,101670.19
2023-04-05T17:18:32.546Z,101670.19
2023-04-05T17:21:02.399Z,101673.78
2023-04-05T17:23:31.942Z,101678.19
2023-04-05T17:26:01.617Z,101679.94
2023-04-05T17:28:31.972Z,101687.03
2023-04-05T17:31:01.776Z,101687.91
2023-04-05T17:33:32.729Z,101686.16
2023-04-05T17:36:03.134Z,101694.13
2023-04-05T17:38:32.735Z,101686.19
2023-04-05T17:41:03.267Z,101686.19
2023-04-05T17:43:32.807Z,101699.41
2023-04-05T17:46:03.321Z,101701.19
2023-04-05T17:48:34.257Z,101704.69
2023-04-05T17:51:07.910Z,101708.25
2023-04-05T17:53:37.709Z,101707.34
2023-04-05T17:56:07.130Z,101707.34
2023-04-05T17:58:36.517Z,101702.03
2023-04-05T18:01:06.182Z,101717.03
2023-04-05T18:03:37.310Z,101713.47
2023-04-05T18:06:08.054Z,101715.22
2023-04-05T18:08:37.581Z,101709.94
2023-04-05T18:11:06.968Z,101714.31
2023-04-05T18:13:36.632Z,101723.97
2023-04-05T18:16:06.055Z,101725.72
2023-04-05T18:18:37.073Z,101723.91
2023-04-05T18:21:08.170Z,101723.00
2023-04-05T18:23:37.696Z,101730.91
2023-04-05T18:26:08.213Z,101729.09
2023-04-05T18:28:37.708Z,101736.13
2023-04-05T18:31:10.324Z,101733.44
2023-04-05T18:33:42.922Z,101738.66
2023-04-05T18:36:14.524Z,101736.88
2023-04-05T18:38:44.067Z,101740.38
2023-04-05T18:41:15.290Z,101751.75
2023-04-05T18:43:44.887Z,101740.28
2023-04-05T18:46:18.640Z,101744.63
2023-04-05T18:48:54.359Z,101749.84
2023-04-05T18:51:27.806Z,101749.78
2023-04-05T18:53:57.612Z,101756.75
2023-04-05T18:56:28.053Z,101745.25
2023-04-05T18:58:58.147Z,101747.84
2023-04-05T19:01:27.856Z,101762.72
2023-04-05T19:04:00.490Z,101757.41
2023-04-05T19:06:30.551Z,101761.69
2023-04-05T19:09:02.303Z,101755.50
2023-04-05T19:11:31.949Z,101758.09
2023-04-05T19:14:04.141Z,101754.50
2023-04-05T19:16:34.154Z,101758.81
2023-04-05T19:19:06.338Z,101753.44
2023-04-05T19:21:38.120Z,101755.16
2023-04-05T19:24:12.183Z,101750.69
2023-04-05T19:26:48.287Z,101759.41
2023-04-05T19:29:17.633Z,101755.78
2023-04-05T19:31:49.110Z,101764.50
2023-04-05T19:34:19.911Z,101758.28
2023-04-05T19:36:49.846Z,101766.09
2023-04-05T19:39:22.997Z,101766.00
2023-04-05T19:41:55.045Z,101765.03
2023-04-05T19:44:39.775Z,101760.53
2023-04-05T19:47:11.611Z,101757.78
2023-04-05T19:49:43.549Z,101763.84
2023-04-05T19:52:36.438Z,101756.78
2023-04-05T19:55:25.667Z,101757.59
2023-04-05T19:57:57.308Z,101763.63
2023-04-05T20:00:39.136Z,101764.41
2023-04-05T20:03:29.077Z,101768.72
2023-04-05T20:06:06.724Z,101760.75
2023-04-05T20:08:38.831Z,101774.72
2023-04-05T20:11:11.192Z,101771.97
2023-04-05T20:13:50.786Z,101774.53
2023-04-05T20:16:24.882Z,101775.28
2023-04-05T20:18:55.702Z,101769.09
2023-04-05T20:21:27.765Z,101779.59
2023-04-05T20:23:58.965Z,101774.22
2023-04-05T20:26:31.105Z,101763.56
2023-04-05T20:29:06.955Z,101767.06
2023-04-05T20:31:40.568Z,101774.84
2023-04-05T20:34:14.184Z,101766.84
2023-04-05T20:36:51.348Z,101777.34
2023-04-05T20:39:24.723Z,101771.16
2023-04-05T20:41:58.106Z,101771.09
2023-04-05T20:44:32.971Z,101768.38
2023-04-05T20:47:03.310Z,101763.09
2023-04-05T20:49:34.802Z,101765.69
2023-04-05T20:52:09.018Z,101770.06
2023-04-05T20:54:39.423Z,101765.56
2023-04-05T20:57:09.659Z,101758.44
2023-04-05T20:59:39.547Z,101763.63
2023-04-05T21:02:09.062Z,101765.41
2023-04-05T21:04:38.757Z,101767.06
2023-04-05T21:07:09.332Z,101768.75
2023-04-05T21:09:38.958Z,101765.19
2023-04-05T21:12:08.609Z,101767.84
2023-04-05T21:14:38.010Z,101772.22
2023-04-05T21:17:07.443Z,101769.56
2023-04-05T21:19:37.016Z,101766.84
2023-04-05T21:22:06.241Z,101763.19
2023-04-05T21:24:37.248Z,101768.44
2023-04-05T21:27:06.606Z,101760.53
2023-04-05T21:29:36.121Z,101768.34
2023-04-05T21:32:05.708Z,101768.25
2023-04-05T21:34:35.311Z,101763.81
2023-04-05T21:37:04.610Z,101769.94
2023-04-05T21:39:34.056Z,101766.25
2023-04-05T21:42:05.667Z,101770.63
2023-04-05T21:44:35.321Z,101773.22
2023-04-05T21:47:04.724Z,101769.66
2023-04-05T21:49:34.227Z,101776.56
2023-04-05T21:52:03.524Z,101763.34
2023-04-05T21:54:33.378Z,101770.31
2023-04-05T21:57:04.300Z,101765.13
2023-04-05T21:59:33.954Z,101773.84
2023-04-05T22:02:03.496Z,101771.09
2023-04-05T22:04:33.294Z,101765.84
2023-04-05T22:07:02.696Z,101767.56
2023-04-05T22:09:32.764Z,101765.66
2023-04-05T22:12:01.900Z,101766.56
2023-04-05T22:14:32.984Z,101768.25
2023-04-05T22:17:02.427Z,101769.97
2023-04-05T22:19:32.066Z,101771.66
2023-04-05T22:22:01.529Z,101770.75
2023-04-05T22:24:31.331Z,101772.44
2023-04-05T22:27:00.856Z,101767.09
2023-04-05T22:29:32.005Z,101768.78
2023-04-05T22:32:01.921Z,101778.41
2023-04-05T22:34:31.902Z,101782.63
2023-04-05T22:37:01.601Z,101774.75
2023-04-05T22:39:31.273Z,101775.63
2023-04-05T22:42:00.715Z,101791.41
2023-04-05T22:44:34.011Z,101784.44
2023-04-05T22:47:03.265Z,101782.63
2023-04-05T22:49:33.751Z,101791.41
2023-04-05T22:52:02.712Z,101784.47
2023-04-05T22:54:32.349Z,101784.41
2023-04-05T22:57:01.686Z,101786.94
2023-04-05T22:59:32.596Z,101792.25
2023-04-05T23:02:01.929Z,101784.38
2023-04-05T23:04:31.517Z,101782.69
2023-04-05T23:07:00.720Z,101784.47
2023-04-05T23:09:30.314Z,101794.16
2023-04-05T23:11:59.550Z,101787.19
2023-04-05T23:14:29.056Z,101793.38
2023-04-05T23:16:59.708Z,101788.19
2023-04-05T23:19:29.239Z,101789.94
2023-04-05T23:21:58.669Z,101789.94
2023-04-05T23:24:28.310Z,101793.50
2023-04-05T23:26:57.491Z,101793.47
2023-04-05T23:29:27.327Z,101788.31
2023-04-05T23:31:56.618Z,101783.97
2023-04-05T23:34:28.195Z,101789.28
2023-04-05T23:36:57.431Z,101787.56
2023-04-05T23:39:27.071Z,101791.97
2023-04-05T23:41:56.807Z,101792.88
2023-04-05T23:44:26.380Z,101792.91
2023-04-05T23:46:55.773Z,101798.19
2023-04-05T23:49:28.195Z,101798.28
2023-04-05T23:51:57.616Z,101789.56
2023-04-05T23:54:27.091Z,101784.34
2023-04-05T23:56:57.552Z,101788.78
2023-04-05T23:59:27.285Z,101791.44
